createdAt,value
2023-09-09T00:00:29.339Z,100094.91
2023-09-09T00:01:01.069Z,100089.72
2023-09-09T00:01:32.794Z,100086.88
2023-09-09T00:02:04.539Z,100092.22
2023-09-09T00:02:36.222Z,100086.03
2023-09-09T00:03:08.058Z,100093.22
2023-09-09T00:03:40.016Z,100093.22
2023-09-09T00:04:11.917Z,100087.84
2023-09-09T00:04:43.732Z,100094.06
2023-09-09T00:05:15.455Z,100086.03
2023-09-09T00:05:47.181Z,100084.19
2023-09-09T00:06:18.816Z,100087.84
2023-09-09T00:06:50.657Z,100090.53
2023-09-09T00:07:22.516Z,100088.88
2023-09-09T00:07:54.167Z,100087.84
2023-09-09T00:08:25.864Z,100100.28
2023-09-09T00:08:57.534Z,100089.72
2023-09-09T00:09:29.265Z,100084.34
2023-09-09T00:10:01.002Z,100087.84
2023-09-09T00:10:35.785Z,100088.72
2023-09-09T00:11:07.832Z,100090.53
2023-09-09T00:11:39.488Z,100091.41
2023-09-09T00:12:11.129Z,100091.56
2023-09-09T00:12:43.044Z,100086.19
2023-09-09T00:13:14.863Z,100086.19
2023-09-09T00:13:46.486Z,100086.19
2023-09-09T00:14:18.117Z,100080.84
2023-09-09T00:14:49.755Z,100080.84
2023-09-09T00:15:21.382Z,100074.47
2023-09-09T00:15:55.875Z,100082.50
2023-09-09T00:16:32.476Z,100084.34
2023-09-09T00:17:04.321Z,100081.66
2023-09-09T00:17:36.031Z,100082.50
2023-09-09T00:18:07.750Z,100088.72
2023-09-09T00:18:39.636Z,100086.19
2023-09-09T00:19:11.450Z,100079.00
2023-09-09T00:19:43.314Z,100089.72
2023-09-09T00:20:15.199Z,100081.81
2023-09-09T00:20:46.851Z,100082.69
2023-09-09T00:21:18.497Z,100087.03
2023-09-09T00:21:50.064Z,100082.50
2023-09-09T00:22:21.747Z,100087.84
2023-09-09T00:22:53.442Z,100084.34
2023-09-09T00:23:25.121Z,100087.84
2023-09-09T00:23:56.914Z,100092.38
2023-09-09T00:24:28.669Z,100080.84
2023-09-09T00:25:00.395Z,100081.66
2023-09-09T00:25:32.061Z,100086.19
2023-09-09T00:26:03.707Z,100086.19
2023-09-09T00:26:35.347Z,100083.50
2023-09-09T00:27:06.956Z,100086.19
2023-09-09T00:27:38.717Z,100079.00
2023-09-09T00:28:10.948Z,100084.50
2023-09-09T00:28:42.643Z,100084.34
2023-09-09T00:29:14.475Z,100081.66
2023-09-09T00:29:46.153Z,100075.47
2023-09-09T00:30:17.895Z,100080.84
2023-09-09T00:30:49.474Z,100089.88
2023-09-09T00:31:21.218Z,100081.00
2023-09-09T00:31:52.967Z,100084.50
2023-09-09T00:32:24.647Z,100082.69
2023-09-09T00:32:56.285Z,100082.69
2023-09-09T00:33:27.992Z,100079.16
2023-09-09T00:33:59.608Z,100075.63
2023-09-09T00:34:31.355Z,100081.81
2023-09-09T00:35:03.048Z,100081.81
2023-09-09T00:35:35.030Z,100073.94
2023-09-09T00:36:06.908Z,100076.47
2023-09-09T00:36:38.619Z,100069.28
2023-09-09T00:37:10.277Z,100072.13
2023-09-09T00:37:41.958Z,100078.31
2023-09-09T00:38:13.837Z,100075.47
2023-09-09T00:38:45.570Z,100076.47
2023-09-09T00:39:17.304Z,100072.81
2023-09-09T00:39:48.960Z,100071.09
2023-09-09T00:40:20.594Z,100068.44
2023-09-09T00:41:10.898Z,100074.66
2023-09-09T00:41:42.544Z,100072.13
2023-09-09T00:42:14.152Z,100071.09
2023-09-09T00:42:45.869Z,100072.13
2023-09-09T00:43:17.489Z,100072.97
2023-09-09T00:43:49.772Z,100073.78
2023-09-09T00:44:21.443Z,100078.16
2023-09-09T00:44:53.052Z,100067.59
2023-09-09T00:45:24.817Z,100070.28
2023-09-09T00:45:56.531Z,100072.97
2023-09-09T00:46:28.403Z,100075.63
2023-09-09T00:47:00.261Z,100073.78
2023-09-09T00:47:32.559Z,100072.97
2023-09-09T00:48:04.579Z,100065.91
2023-09-09T00:48:37.225Z,100069.44
2023-09-09T00:49:09.298Z,100072.97
2023-09-09T00:49:41.048Z,100076.63
2023-09-09T00:50:13.336Z,100072.13
2023-09-09T00:50:44.987Z,100066.78
2023-09-09T00:51:16.552Z,100066.78
2023-09-09T00:51:48.176Z,100068.44
2023-09-09T00:52:19.895Z,100066.78
2023-09-09T00:52:51.531Z,100070.44
2023-09-09T00:53:23.199Z,100072.13
2023-09-09T00:53:54.796Z,100066.78
2023-09-09T00:54:26.444Z,100057.88
2023-09-09T00:54:58.290Z,100065.91
2023-09-09T00:55:29.954Z,100066.78
2023-09-09T00:56:01.620Z,100067.59
2023-09-09T00:56:33.229Z,100062.41
2023-09-09T00:57:05.141Z,100058.88
2023-09-09T00:57:37.390Z,100065.06
2023-09-09T00:58:09.081Z,100064.09
2023-09-09T00:58:40.750Z,100064.09
2023-09-09T00:59:12.485Z,100065.06
2023-09-09T00:59:44.175Z,100066.78
2023-09-09T01:00:15.810Z,100055.19
2023-09-09T01:00:47.482Z,100065.91
2023-09-09T01:01:19.145Z,100059.72
2023-09-09T01:01:50.795Z,100056.06
2023-09-09T01:02:22.658Z,100060.38
2023-09-09T01:02:54.437Z,100056.88
2023-09-09T01:03:26.187Z,100062.09
2023-09-09T01:03:58.246Z,100056.88
2023-09-09T01:04:29.993Z,100055.91
2023-09-09T01:05:01.749Z,100057.72
2023-09-09T01:05:33.438Z,100060.38
2023-09-09T01:06:05.143Z,100054.03
2023-09-09T01:06:36.891Z,100052.34
2023-09-09T01:07:08.512Z,100056.88
2023-09-09T01:07:43.767Z,100056.06
2023-09-09T01:08:24.916Z,100061.41
2023-09-09T01:08:56.509Z,100055.91
2023-09-09T01:09:28.229Z,100056.88
2023-09-09T01:09:59.877Z,100057.72
2023-09-09T01:10:31.601Z,100053.38
2023-09-09T01:11:03.384Z,100052.34
2023-09-09T01:11:35.052Z,100058.56
2023-09-09T01:12:06.943Z,100050.53
2023-09-09T01:12:38.580Z,100053.22
2023-09-09T01:13:10.144Z,100051.53
2023-09-09T01:13:42.079Z,100055.03
2023-09-09T01:14:13.946Z,100056.06
2023-09-09T01:14:45.764Z,100056.06
2023-09-09T01:15:17.495Z,100060.38
2023-09-09T01:15:49.185Z,100057.72
2023-09-09T01:16:20.983Z,100059.41
2023-09-09T01:16:52.971Z,100059.41
2023-09-09T01:17:24.689Z,100056.88
2023-09-09T01:17:56.452Z,100060.38
2023-09-09T01:18:28.066Z,100052.50
2023-09-09T01:18:59.715Z,100056.06
2023-09-09T01:19:31.466Z,100050.69
2023-09-09T01:20:03.939Z,100054.03
2023-09-09T01:20:36.732Z,100051.38
2023-09-09T01:21:08.838Z,100059.41
2023-09-09T01:21:40.692Z,100054.03
2023-09-09T01:22:18.010Z,100049.66
2023-09-09T01:22:49.646Z,100052.50
2023-09-09T01:23:21.354Z,100054.34
2023-09-09T01:23:53.030Z,100054.34
2023-09-09T01:24:24.705Z,100056.06
2023-09-09T01:24:56.573Z,100051.38
2023-09-09T01:25:28.290Z,100054.03
2023-09-09T01:26:00.291Z,100053.22
2023-09-09T01:26:32.097Z,100053.22
2023-09-09T01:27:03.889Z,100045.34
2023-09-09T01:27:35.533Z,100049.81
2023-09-09T01:28:07.149Z,100044.47
2023-09-09T01:28:38.829Z,100047.16
2023-09-09T01:29:10.517Z,100042.66
2023-09-09T01:29:42.266Z,100053.38
2023-09-09T01:30:13.988Z,100044.47
2023-09-09T01:30:45.630Z,100042.81
2023-09-09T01:31:17.252Z,100052.34
2023-09-09T01:31:49.014Z,100046.31
2023-09-09T01:32:20.724Z,100055.19
2023-09-09T01:32:52.342Z,100049.66
2023-09-09T01:33:24.013Z,100055.03
2023-09-09T01:33:55.835Z,100049.81
2023-09-09T01:34:27.511Z,100044.47
2023-09-09T01:34:59.163Z,100047.16
2023-09-09T01:35:30.840Z,100051.53
2023-09-09T01:36:02.506Z,100043.63
2023-09-09T01:36:34.144Z,100044.63
2023-09-09T01:37:05.722Z,100047.31
2023-09-09T01:37:37.380Z,100044.47
2023-09-09T01:38:09.054Z,100043.63
2023-09-09T01:38:40.615Z,100043.63
2023-09-09T01:39:12.253Z,100043.63
2023-09-09T01:39:43.914Z,100045.50
2023-09-09T01:40:15.608Z,100051.53
2023-09-09T01:40:47.240Z,100040.97
2023-09-09T01:41:18.905Z,100042.66
2023-09-09T01:41:50.694Z,100042.81
2023-09-09T01:42:22.320Z,100040.97
2023-09-09T01:42:54.052Z,100044.31
2023-09-09T01:43:25.716Z,100039.13
2023-09-09T01:43:57.330Z,100039.13
2023-09-09T01:44:29.193Z,100039.97
2023-09-09T01:45:00.978Z,100042.66
2023-09-09T01:45:32.615Z,100044.47
2023-09-09T01:46:04.363Z,100042.81
2023-09-09T01:46:36.112Z,100040.13
2023-09-09T01:47:07.755Z,100035.59
2023-09-09T01:47:39.585Z,100045.34
2023-09-09T01:48:11.384Z,100040.81
2023-09-09T01:48:43.044Z,100043.47
2023-09-09T01:49:14.701Z,100042.50
2023-09-09T01:49:46.471Z,100044.31
2023-09-09T01:50:18.160Z,100048.84
2023-09-09T01:50:49.769Z,100039.97
2023-09-09T01:51:21.402Z,100045.34
2023-09-09T01:51:53.231Z,100044.47
2023-09-09T01:52:25.012Z,100041.63
2023-09-09T01:52:56.652Z,100041.63
2023-09-09T01:53:28.266Z,100048.84
2023-09-09T01:53:59.860Z,100046.31
2023-09-09T01:54:31.736Z,100041.94
2023-09-09T01:55:03.425Z,100042.97
2023-09-09T01:55:35.190Z,100044.63
2023-09-09T01:56:06.907Z,100040.97
2023-09-09T01:56:38.537Z,100049.00
2023-09-09T01:57:10.252Z,100045.34
2023-09-09T01:57:41.933Z,100048.16
2023-09-09T01:58:13.652Z,100036.59
2023-09-09T01:58:45.310Z,100036.59
2023-09-09T01:59:17.042Z,100042.81
2023-09-09T01:59:48.693Z,100046.47
2023-09-09T02:00:20.286Z,100043.97
2023-09-09T02:00:52.041Z,100043.81
2023-09-09T02:01:23.698Z,100046.47
2023-09-09T02:01:55.510Z,100047.31
2023-09-09T02:02:27.274Z,100036.59
2023-09-09T02:02:59.167Z,100053.53
2023-09-09T02:03:30.881Z,100040.97
2023-09-09T02:04:02.617Z,100044.63
2023-09-09T02:04:34.296Z,100044.47
2023-09-09T02:05:06.155Z,100045.34
2023-09-09T02:05:37.768Z,100044.47
2023-09-09T02:06:09.519Z,100040.13
2023-09-09T02:06:41.423Z,100045.50
2023-09-09T02:07:13.048Z,100047.31
2023-09-09T02:07:44.697Z,100040.28
2023-09-09T02:08:16.361Z,100050.00
2023-09-09T02:08:47.976Z,100051.00
2023-09-09T02:09:19.600Z,100047.31
2023-09-09T02:09:51.262Z,100040.97
2023-09-09T02:10:22.900Z,100052.50
2023-09-09T02:10:54.754Z,100054.34
2023-09-09T02:11:26.528Z,100052.66
2023-09-09T02:11:58.305Z,100045.50
2023-09-09T02:12:29.913Z,100054.34
2023-09-09T02:13:01.556Z,100046.31
2023-09-09T02:13:33.277Z,100041.78
2023-09-09T02:14:05.003Z,100040.97
2023-09-09T02:14:36.618Z,100042.97
2023-09-09T02:15:09.012Z,100046.31
2023-09-09T02:15:40.771Z,100043.63
2023-09-09T02:16:12.526Z,100039.97
2023-09-09T02:16:44.206Z,100042.66
2023-09-09T02:17:15.856Z,100040.97
2023-09-09T02:17:50.735Z,100039.97
2023-09-09T02:18:22.406Z,100040.81
2023-09-09T02:18:54.184Z,100043.63
2023-09-09T02:19:26.022Z,100037.44
2023-09-09T02:19:57.690Z,100043.81
2023-09-09T02:20:29.392Z,100038.59
2023-09-09T02:21:01.072Z,100043.97
2023-09-09T02:21:32.768Z,100041.13
2023-09-09T02:22:05.332Z,100050.00
2023-09-09T02:22:36.978Z,100049.16
2023-09-09T02:23:09.642Z,100040.28
2023-09-09T02:23:41.507Z,100039.44
2023-09-09T02:24:13.258Z,100039.28
2023-09-09T02:24:45.129Z,100038.28
2023-09-09T02:25:16.878Z,100043.97
2023-09-09T02:25:48.601Z,100043.97
2023-09-09T02:26:20.312Z,100035.75
2023-09-09T02:26:51.910Z,100040.97
2023-09-09T02:27:23.817Z,100043.97
2023-09-09T02:27:55.451Z,100038.59
2023-09-09T02:28:27.145Z,100038.44
2023-09-09T02:28:58.763Z,100047.31
2023-09-09T02:29:30.464Z,100047.31
2023-09-09T02:30:02.150Z,100043.63
2023-09-09T02:30:33.815Z,100036.59
2023-09-09T02:31:05.507Z,100040.97
2023-09-09T02:31:37.224Z,100032.09
2023-09-09T02:32:08.884Z,100035.59
2023-09-09T02:32:40.713Z,100036.59
2023-09-09T02:33:12.526Z,100036.59
2023-09-09T02:33:44.190Z,100038.28
2023-09-09T02:34:15.963Z,100040.28
2023-09-09T02:34:47.539Z,100041.94
2023-09-09T02:35:19.180Z,100041.94
2023-09-09T02:35:50.905Z,100045.50
2023-09-09T02:36:22.525Z,100042.81
2023-09-09T02:37:14.410Z,100040.97
2023-09-09T02:37:46.136Z,100047.31
2023-09-09T02:38:17.781Z,100048.31
2023-09-09T02:38:49.421Z,100047.31
2023-09-09T02:39:21.090Z,100039.28
2023-09-09T02:39:52.843Z,100042.81
2023-09-09T02:40:24.505Z,100038.28
2023-09-09T02:40:56.177Z,100042.81
2023-09-09T02:41:27.839Z,100036.75
2023-09-09T02:41:59.520Z,100034.94
2023-09-09T02:42:31.156Z,100041.13
2023-09-09T02:43:02.878Z,100033.91
2023-09-09T02:43:34.559Z,100041.94
2023-09-09T02:44:06.640Z,100044.63
2023-09-09T02:44:38.267Z,100033.91
2023-09-09T02:45:10.146Z,100041.94
2023-09-09T02:45:41.926Z,100036.59
2023-09-09T02:46:13.650Z,100035.75
2023-09-09T02:46:45.439Z,100038.59
2023-09-09T02:47:17.092Z,100043.13
2023-09-09T02:47:48.742Z,100039.44
2023-09-09T02:48:20.292Z,100042.09
2023-09-09T02:48:52.001Z,100038.59
2023-09-09T02:49:23.692Z,100039.59
2023-09-09T02:49:55.479Z,100031.56
2023-09-09T02:50:27.202Z,100036.06
2023-09-09T02:50:58.849Z,100035.25
2023-09-09T02:51:30.412Z,100035.09
2023-09-09T02:52:02.064Z,100033.25
2023-09-09T02:52:33.812Z,100045.81
2023-09-09T02:53:05.506Z,100043.97
2023-09-09T02:53:37.385Z,100038.75
2023-09-09T02:54:09.259Z,100036.91
2023-09-09T02:54:40.844Z,100033.56
2023-09-09T02:55:12.467Z,100031.72
2023-09-09T02:55:44.166Z,100040.59
2023-09-09T02:56:15.852Z,100035.41
2023-09-09T02:56:47.511Z,100032.72
2023-09-09T02:57:19.146Z,100041.75
2023-09-09T02:57:50.858Z,100045.25
2023-09-09T02:58:22.588Z,100036.22
2023-09-09T02:58:54.205Z,100039.91
2023-09-09T02:59:25.939Z,100043.44
2023-09-09T02:59:57.686Z,100035.56
2023-09-09T03:00:29.346Z,100037.22
2023-09-09T03:01:04.354Z,100035.56
2023-09-09T03:01:36.164Z,100035.56
2023-09-09T03:02:07.886Z,100041.75
2023-09-09T03:02:39.652Z,100043.44
2023-09-09T03:03:11.506Z,100031.72
2023-09-09T03:03:43.352Z,100045.09
2023-09-09T03:04:15.478Z,100033.56
2023-09-09T03:04:47.215Z,100036.91
2023-09-09T03:05:18.962Z,100045.97
2023-09-09T03:05:50.616Z,100036.22
2023-09-09T03:06:22.341Z,100036.06
2023-09-09T03:06:54.098Z,100041.44
2023-09-09T03:07:25.733Z,100041.59
2023-09-09T03:07:58.463Z,100034.53
2023-09-09T03:08:30.562Z,100037.06
2023-09-09T03:09:02.250Z,100036.38
2023-09-09T03:09:33.907Z,100039.91
2023-09-09T03:10:05.916Z,100037.22
2023-09-09T03:10:37.551Z,100034.53
2023-09-09T03:11:09.188Z,100037.06
2023-09-09T03:11:40.817Z,100037.22
2023-09-09T03:12:12.462Z,100038.91
2023-09-09T03:12:44.207Z,100041.59
2023-09-09T03:13:15.959Z,100038.91
2023-09-09T03:13:47.661Z,100040.75
2023-09-09T03:14:19.353Z,100039.06
2023-09-09T03:14:51.163Z,100040.75
2023-09-09T03:15:23.128Z,100044.28
2023-09-09T03:15:54.796Z,100043.28
2023-09-09T03:16:26.508Z,100038.25
2023-09-09T03:16:58.264Z,100038.91
2023-09-09T03:17:29.957Z,100043.28
2023-09-09T03:18:01.728Z,100038.91
2023-09-09T03:18:33.576Z,100047.94
2023-09-09T03:19:05.391Z,100040.09
2023-09-09T03:19:37.030Z,100040.91
2023-09-09T03:20:08.960Z,100038.91
2023-09-09T03:20:40.682Z,100039.91
2023-09-09T03:21:12.413Z,100040.75
2023-09-09T03:21:44.007Z,100040.59
2023-09-09T03:22:15.592Z,100043.28
2023-09-09T03:22:47.276Z,100038.09
2023-09-09T03:23:18.835Z,100035.56
2023-09-09T03:23:50.466Z,100036.38
2023-09-09T03:24:22.181Z,100032.06
2023-09-09T03:24:53.907Z,100041.75
2023-09-09T03:25:25.665Z,100044.44
2023-09-09T03:25:57.389Z,100039.22
2023-09-09T03:26:29.098Z,100040.09
2023-09-09T03:27:00.852Z,100024.84
2023-09-09T03:27:32.536Z,100043.75
2023-09-09T03:28:11.771Z,100044.59
2023-09-09T03:28:43.362Z,100039.22
2023-09-09T03:29:14.960Z,100033.03
2023-09-09T03:29:46.625Z,100037.56
2023-09-09T03:30:18.453Z,100032.06
2023-09-09T03:30:55.828Z,100038.25
2023-09-09T03:31:27.600Z,100039.22
2023-09-09T03:31:59.230Z,100033.72
2023-09-09T03:32:30.916Z,100037.22
2023-09-09T03:33:02.646Z,100031.88
2023-09-09T03:33:36.768Z,100034.53
2023-09-09T03:34:09.735Z,100038.91
2023-09-09T03:34:41.554Z,100035.41
2023-09-09T03:35:13.276Z,100037.22
2023-09-09T03:35:45.153Z,100037.22
2023-09-09T03:36:16.789Z,100038.91
2023-09-09T03:36:48.605Z,100039.06
2023-09-09T03:37:20.338Z,100034.53
2023-09-09T03:37:52.042Z,100037.22
2023-09-09T03:38:23.885Z,100037.22
2023-09-09T03:38:55.596Z,100037.94
2023-09-09T03:39:27.301Z,100033.56
2023-09-09T03:39:59.048Z,100033.56
2023-09-09T03:40:30.926Z,100033.56
2023-09-09T03:41:05.620Z,100037.22
2023-09-09T03:41:37.218Z,100039.22
2023-09-09T03:42:08.854Z,100041.75
2023-09-09T03:42:40.562Z,100039.06
2023-09-09T03:43:12.547Z,100036.22
2023-09-09T03:43:44.551Z,100039.06
2023-09-09T03:44:16.422Z,100032.06
2023-09-09T03:44:48.029Z,100030.38
2023-09-09T03:45:19.713Z,100036.56
2023-09-09T03:45:54.688Z,100035.56
2023-09-09T03:46:26.339Z,100035.56
2023-09-09T03:46:58.063Z,100037.41
2023-09-09T03:47:29.711Z,100036.56
2023-09-09T03:48:01.502Z,100040.09
2023-09-09T03:48:33.427Z,100034.88
2023-09-09T03:49:05.129Z,100038.41
2023-09-09T03:49:36.891Z,100047.28
2023-09-09T03:50:08.779Z,100042.94
2023-09-09T03:50:40.446Z,100044.75
2023-09-09T03:51:12.079Z,100042.94
2023-09-09T03:51:43.718Z,100043.75
2023-09-09T03:52:15.378Z,100041.25
2023-09-09T03:52:47.045Z,100047.28
2023-09-09T03:53:18.688Z,100049.94
2023-09-09T03:53:50.325Z,100046.44
2023-09-09T03:54:22.115Z,100044.59
2023-09-09T03:54:53.988Z,100046.28
2023-09-09T03:55:26.051Z,100043.75
2023-09-09T03:55:59.544Z,100043.91
2023-09-09T03:56:31.232Z,100046.44
2023-09-09T03:57:02.846Z,100046.28
2023-09-09T03:57:34.510Z,100043.75
2023-09-09T03:58:06.164Z,100044.59
2023-09-09T03:58:38.009Z,100053.47
2023-09-09T03:59:09.895Z,100044.75
2023-09-09T03:59:41.552Z,100037.56
2023-09-09T04:00:13.549Z,100049.13
2023-09-09T04:00:45.226Z,100041.25
2023-09-09T04:01:17.001Z,100038.56
2023-09-09T04:01:48.824Z,100051.94
2023-09-09T04:02:20.525Z,100048.28
2023-09-09T04:02:52.413Z,100050.09
2023-09-09T04:03:24.306Z,100050.97
2023-09-09T04:03:56.185Z,100051.94
2023-09-09T04:04:28.083Z,100051.94
2023-09-09T04:04:59.766Z,100050.97
2023-09-09T04:05:31.412Z,100050.97
2023-09-09T04:06:10.345Z,100049.28
2023-09-09T04:06:41.993Z,100051.94
2023-09-09T04:07:13.612Z,100046.59
2023-09-09T04:07:45.376Z,100051.94
2023-09-09T04:08:17.202Z,100050.25
2023-09-09T04:08:48.875Z,100045.59
2023-09-09T04:09:20.564Z,100044.75
2023-09-09T04:09:53.625Z,100042.06
2023-09-09T04:10:25.344Z,100041.91
2023-09-09T04:10:56.931Z,100046.59
2023-09-09T04:11:28.565Z,100050.81
2023-09-09T04:12:00.194Z,100048.28
2023-09-09T04:12:31.967Z,100050.97
2023-09-09T04:13:03.835Z,100051.78
2023-09-09T04:13:38.162Z,100049.13
2023-09-09T04:14:10.038Z,100047.44
2023-09-09T04:14:41.713Z,100039.22
2023-09-09T04:15:13.337Z,100046.28
2023-09-09T04:15:44.953Z,100042.94
2023-09-09T04:16:16.790Z,100048.28
2023-09-09T04:16:48.502Z,100049.13
2023-09-09T04:17:20.276Z,100044.75
2023-09-09T04:17:52.077Z,100045.59
2023-09-09T04:18:42.263Z,100051.13
2023-09-09T04:19:14.567Z,100051.13
2023-09-09T04:19:46.282Z,100041.25
2023-09-09T04:20:18.184Z,100044.59
2023-09-09T04:20:49.890Z,100045.59
2023-09-09T04:21:21.560Z,100053.66
2023-09-09T04:21:53.384Z,100041.91
2023-09-09T04:22:25.285Z,100045.59
2023-09-09T04:22:59.920Z,100042.94
2023-09-09T04:23:31.579Z,100042.94
2023-09-09T04:24:03.285Z,100049.28
2023-09-09T04:24:35.058Z,100046.44
2023-09-09T04:25:06.765Z,100049.94
2023-09-09T04:25:38.371Z,100045.59
2023-09-09T04:26:09.976Z,100043.91
2023-09-09T04:26:41.599Z,100037.56
2023-09-09T04:27:13.237Z,100046.59
2023-09-09T04:27:44.994Z,100043.91
2023-09-09T04:28:16.656Z,100050.25
2023-09-09T04:28:48.298Z,100047.59
2023-09-09T04:29:19.955Z,100041.41
2023-09-09T04:29:51.602Z,100039.53
2023-09-09T04:30:23.310Z,100049.28
2023-09-09T04:30:55.014Z,100043.25
2023-09-09T04:31:26.804Z,100046.59
2023-09-09T04:31:58.815Z,100041.09
2023-09-09T04:32:30.529Z,100048.28
2023-09-09T04:33:02.318Z,100043.25
2023-09-09T04:33:34.084Z,100036.88
2023-09-09T04:34:08.542Z,100043.09
2023-09-09T04:34:40.201Z,100049.44
2023-09-09T04:35:11.767Z,100034.19
2023-09-09T04:35:43.537Z,100036.19
2023-09-09T04:36:15.270Z,100038.56
2023-09-09T04:36:47.016Z,100041.25
2023-09-09T04:37:18.685Z,100041.25
2023-09-09T04:37:50.399Z,100049.28
2023-09-09T04:38:21.977Z,100037.72
2023-09-09T04:38:53.634Z,100044.06
2023-09-09T04:39:25.263Z,100040.56
2023-09-09T04:39:56.980Z,100033.19
2023-09-09T04:40:28.651Z,100042.22
2023-09-09T04:41:00.331Z,100040.56
2023-09-09T04:41:31.973Z,100043.09
2023-09-09T04:42:03.672Z,100038.72
2023-09-09T04:42:35.397Z,100044.91
2023-09-09T04:43:07.428Z,100037.88
2023-09-09T04:43:39.228Z,100043.25
2023-09-09T04:44:11.169Z,100040.56
2023-09-09T04:44:42.821Z,100040.41
2023-09-09T04:45:14.595Z,100037.72
2023-09-09T04:45:46.399Z,100043.25
2023-09-09T04:46:18.167Z,100040.56
2023-09-09T04:46:49.797Z,100035.22
2023-09-09T04:47:21.412Z,100037.56
2023-09-09T04:47:53.072Z,100043.91
2023-09-09T04:48:24.794Z,100036.88
2023-09-09T04:48:56.483Z,100042.22
2023-09-09T04:49:28.177Z,100044.91
2023-09-09T04:49:59.942Z,100041.25
2023-09-09T04:50:31.592Z,100042.94
2023-09-09T04:51:03.281Z,100048.28
2023-09-09T04:51:34.922Z,100035.06
2023-09-09T04:52:06.609Z,100044.91
2023-09-09T04:52:38.267Z,100044.91
2023-09-09T04:53:09.917Z,100040.41
2023-09-09T04:53:41.629Z,100035.06
2023-09-09T04:54:13.498Z,100046.59
2023-09-09T04:54:45.274Z,100047.75
2023-09-09T04:55:17.468Z,100041.56
2023-09-09T04:55:49.163Z,100042.38
2023-09-09T04:56:20.768Z,100049.44
2023-09-09T04:56:52.475Z,100041.56
2023-09-09T04:57:24.080Z,100044.22
2023-09-09T04:57:55.817Z,100049.59
2023-09-09T04:58:28.233Z,100051.44
2023-09-09T04:58:59.924Z,100054.78
2023-09-09T04:59:31.541Z,100054.78
2023-09-09T05:00:03.325Z,100049.44
2023-09-09T05:00:35.056Z,100046.91
2023-09-09T05:01:06.726Z,100056.63
2023-09-09T05:01:38.438Z,100052.25
2023-09-09T05:02:10.182Z,100047.75
2023-09-09T05:02:41.968Z,100052.94
2023-09-09T05:03:13.744Z,100049.59
2023-09-09T05:03:45.374Z,100057.63
2023-09-09T05:04:17.174Z,100062.97
2023-09-09T05:04:48.882Z,100052.25
2023-09-09T05:05:20.662Z,100056.63
2023-09-09T05:05:52.350Z,100054.94
2023-09-09T05:06:23.953Z,100055.78
2023-09-09T05:06:55.672Z,100052.25
2023-09-09T05:07:27.360Z,100053.97
2023-09-09T05:07:59.048Z,100059.31
2023-09-09T05:08:30.653Z,100055.78
2023-09-09T05:09:02.382Z,100051.28
2023-09-09T05:09:34.124Z,100046.91
2023-09-09T05:10:06.126Z,100056.63
2023-09-09T05:10:37.739Z,100052.94
2023-09-09T05:11:09.374Z,100050.97
2023-09-09T05:11:40.959Z,100056.47
2023-09-09T05:12:12.598Z,100055.63
2023-09-09T05:12:46.492Z,100053.97
2023-09-09T05:13:18.648Z,100055.63
2023-09-09T05:13:50.252Z,100054.63
2023-09-09T05:14:21.877Z,100057.47
2023-09-09T05:14:53.694Z,100053.97
2023-09-09T05:15:25.236Z,100060.97
2023-09-09T05:15:56.942Z,100060.16
2023-09-09T05:16:28.595Z,100057.47
2023-09-09T05:17:00.316Z,100060.97
2023-09-09T05:17:32.078Z,100052.94
2023-09-09T05:18:03.864Z,100056.47
2023-09-09T05:18:35.556Z,100054.78
2023-09-09T05:19:07.199Z,100060.97
2023-09-09T05:19:38.980Z,100059.31
2023-09-09T05:20:11.188Z,100059.31
2023-09-09T05:20:42.804Z,100053.97
2023-09-09T05:21:14.444Z,100058.44
2023-09-09T05:21:46.025Z,100055.78
2023-09-09T05:22:17.774Z,100058.44
2023-09-09T05:22:50.388Z,100057.47
2023-09-09T05:23:22.046Z,100058.44
2023-09-09T05:23:53.658Z,100054.78
2023-09-09T05:24:25.289Z,100060.16
2023-09-09T05:24:56.919Z,100053.09
2023-09-09T05:25:28.521Z,100056.63
2023-09-09T05:26:00.194Z,100053.09
2023-09-09T05:26:31.890Z,100059.31
2023-09-09T05:27:03.581Z,100062.00
2023-09-09T05:27:35.138Z,100053.97
2023-09-09T05:28:06.883Z,100059.31
2023-09-09T05:28:38.551Z,100061.13
2023-09-09T05:29:10.192Z,100062.97
2023-09-09T05:29:41.798Z,100058.44
2023-09-09T05:30:13.476Z,100057.63
2023-09-09T05:30:45.081Z,100053.97
2023-09-09T05:31:16.682Z,100061.13
2023-09-09T05:31:48.418Z,100070.03
2023-09-09T05:32:20.006Z,100067.34
2023-09-09T05:32:51.982Z,100059.31
2023-09-09T05:33:23.767Z,100066.50
2023-09-09T05:33:55.865Z,100067.34
2023-09-09T05:34:27.646Z,100068.19
2023-09-09T05:34:59.282Z,100063.81
2023-09-09T05:35:30.942Z,100071.69
2023-09-09T05:36:02.598Z,100066.34
2023-09-09T05:36:34.184Z,100071.69
2023-09-09T05:37:05.796Z,100064.66
2023-09-09T05:37:37.461Z,100072.72
2023-09-09T05:38:09.091Z,100066.34
2023-09-09T05:38:40.738Z,100062.66
2023-09-09T05:39:12.374Z,100068.03
2023-09-09T05:39:46.590Z,100067.34
2023-09-09T05:40:18.181Z,100067.34
2023-09-09T05:40:49.814Z,100068.19
2023-09-09T05:41:21.441Z,100072.56
2023-09-09T05:41:53.073Z,100068.03
2023-09-09T05:42:24.643Z,100064.50
2023-09-09T05:42:56.270Z,100071.53
2023-09-09T05:43:30.439Z,100078.75
2023-09-09T05:44:02.041Z,100072.41
2023-09-09T05:44:36.655Z,100064.50
2023-09-09T05:45:08.323Z,100065.50
2023-09-09T05:45:40.108Z,100072.72
2023-09-09T05:46:11.957Z,100069.00
2023-09-09T05:46:43.726Z,100066.34
2023-09-09T05:47:15.474Z,100070.03
2023-09-09T05:47:47.180Z,100070.03
2023-09-09T05:48:18.822Z,100068.19
2023-09-09T05:48:50.430Z,100068.34
2023-09-09T05:49:36.054Z,100078.22
2023-09-09T05:50:10.736Z,100071.69
2023-09-09T05:50:43.081Z,100069.00
2023-09-09T05:51:14.935Z,100072.72
2023-09-09T05:51:46.582Z,100066.66
2023-09-09T05:52:18.275Z,100079.06
2023-09-09T05:52:50.035Z,100064.66
2023-09-09T05:53:22.026Z,100069.16
2023-09-09T05:53:53.895Z,100068.34
2023-09-09T05:54:28.455Z,100068.50
2023-09-09T05:55:00.145Z,100076.38
2023-09-09T05:55:31.945Z,100076.22
2023-09-09T05:56:03.758Z,100068.19
2023-09-09T05:56:35.386Z,100076.22
2023-09-09T05:57:07.025Z,100072.72
2023-09-09T05:57:38.698Z,100062.66
2023-09-09T05:58:10.424Z,100069.72
2023-09-09T05:58:42.104Z,100068.84
2023-09-09T05:59:13.759Z,100075.06
2023-09-09T05:59:45.366Z,100072.56
2023-09-09T06:00:17.117Z,100068.03
2023-09-09T06:00:48.785Z,100069.88
2023-09-09T06:01:20.503Z,100074.22
2023-09-09T06:01:52.377Z,100074.22
2023-09-09T06:02:24.151Z,100075.22
2023-09-09T06:02:55.915Z,100075.91
2023-09-09T06:03:27.536Z,100072.56
2023-09-09T06:03:59.298Z,100078.75
2023-09-09T06:04:31.057Z,100080.44
2023-09-09T06:05:02.918Z,100075.06